sensor_id;sensor_type;location;lat;lon;timestamp;P1;durP1;ratioP1;P2;durP2;ratioP2
50671;SDS011;46021;55.882;37.654;2023-02-01T00:01:20;15.45;;;5.97;;
50671;SDS011;46021;55.882;37.654;2023-02-01T00:03:47;12.57;;;5.53;;
50671;SDS011;46021;55.882;37.654;2023-02-01T00:06:14;16.45;;;6.60;;
50671;SDS011;46021;55.882;37.654;2023-02-01T00:08:41;16.08;;;6.15;;
50671;SDS011;46021;55.882;37.654;2023-02-01T00:11:09;15.23;;;7.57;;
50671;SDS011;46021;55.882;37.654;2023-02-01T00:13:38;17.80;;;8.13;;
50671;SDS011;46021;55.882;37.654;2023-02-01T00:16:08;13.82;;;6.65;;
50671;SDS011;46021;55.882;37.654;2023-02-01T00:18:37;12.43;;;6.13;;
50671;SDS011;46021;55.882;37.654;2023-02-01T00:21:04;19.80;;;6.73;;
50671;SDS011;46021;55.882;37.654;2023-02-01T00:23:31;19.67;;;7.60;;
50671;SDS011;46021;55.882;37.654;2023-02-01T00:25:59;16.88;;;6.97;;
50671;SDS011;46021;55.882;37.654;2023-02-01T00:28:27;21.92;;;8.07;;
50671;SDS011;46021;55.882;37.654;2023-02-01T00:30:58;15.65;;;7.32;;
50671;SDS011;46021;55.882;37.654;2023-02-01T00:33:27;16.98;;;7.72;;
50671;SDS011;46021;55.882;37.654;2023-02-01T00:35:56;16.05;;;6.88;;
50671;SDS011;46021;55.882;37.654;2023-02-01T00:38:23;19.20;;;7.05;;
50671;SDS011;46021;55.882;37.654;2023-02-01T00:40:51;16.10;;;7.60;;
50671;SDS011;46021;55.882;37.654;2023-02-01T00:43:18;21.52;;;8.73;;
50671;SDS011;46021;55.882;37.654;2023-02-01T00:45:45;18.88;;;7.65;;
50671;SDS011;46021;55.882;37.654;2023-02-01T00:48:12;17.20;;;6.95;;
50671;SDS011;46021;55.882;37.654;2023-02-01T00:50:42;15.90;;;7.20;;
50671;SDS011;46021;55.882;37.654;2023-02-01T00:53:09;16.27;;;7.25;;
50671;SDS011;46021;55.882;37.654;2023-02-01T00:55:37;19.50;;;7.63;;
50671;SDS011;46021;55.882;37.654;2023-02-01T00:58:04;16.83;;;6.82;;
50671;SDS011;46021;55.882;37.654;2023-02-01T01:00:34;19.48;;;11.75;;
50671;SDS011;46021;55.882;37.654;2023-02-01T01:03:02;18.63;;;7.15;;
50671;SDS011;46021;55.882;37.654;2023-02-01T01:05:44;19.95;;;6.88;;
50671;SDS011;46021;55.882;37.654;2023-02-01T01:08:11;16.73;;;8.10;;
50671;SDS011;46021;55.882;37.654;2023-02-01T01:10:38;16.25;;;6.10;;
50671;SDS011;46021;55.882;37.654;2023-02-01T01:13:06;18.90;;;7.47;;
50671;SDS011;46021;55.882;37.654;2023-02-01T01:15:35;14.77;;;5.38;;
50671;SDS011;46021;55.882;37.654;2023-02-01T01:18:03;15.13;;;6.35;;
50671;SDS011;46021;55.882;37.654;2023-02-01T01:20:30;15.23;;;5.77;;
50671;SDS011;46021;55.882;37.654;2023-02-01T01:22:58;13.33;;;6.07;;
50671;SDS011;46021;55.882;37.654;2023-02-01T01:25:25;23.13;;;7.35;;
50671;SDS011;46021;55.882;37.654;2023-02-01T01:27:53;12.50;;;5.47;;
50671;SDS011;46021;55.882;37.654;2023-02-01T01:30:20;15.10;;;6.60;;
50671;SDS011;46021;55.882;37.654;2023-02-01T01:32:47;10.70;;;5.55;;
50671;SDS011;46021;55.882;37.654;2023-02-01T01:35:15;12.43;;;5.40;;
50671;SDS011;46021;55.882;37.654;2023-02-01T01:37:42;21.17;;;6.37;;
50671;SDS011;46021;55.882;37.654;2023-02-01T01:40:12;14.57;;;6.07;;
50671;SDS011;46021;55.882;37.654;2023-02-01T01:42:39;20.95;;;11.52;;
50671;SDS011;46021;55.882;37.654;2023-02-01T01:45:16;15.80;;;6.10;;
50671;SDS011;46021;55.882;37.654;2023-02-01T01:47:48;15.48;;;5.38;;
50671;SDS011;46021;55.882;37.654;2023-02-01T01:50:18;12.23;;;6.28;;
50671;SDS011;46021;55.882;37.654;2023-02-01T01:52:50;12.68;;;6.10;;
50671;SDS011;46021;55.882;37.654;2023-02-01T01:55:22;16.80;;;6.55;;
50671;SDS011;46021;55.882;37.654;2023-02-01T01:57:53;13.45;;;5.47;;
50671;SDS011;46021;55.882;37.654;2023-02-01T02:00:24;14.45;;;6.05;;
50671;SDS011;46021;55.882;37.654;2023-02-01T02:02:54;16.15;;;6.03;;
50671;SDS011;46021;55.882;37.654;2023-02-01T02:05:25;18.17;;;7.57;;
50671;SDS011;46021;55.882;37.654;2023-02-01T02:07:55;13.75;;;6.32;;
50671;SDS011;46021;55.882;37.654;2023-02-01T02:10:27;14.80;;;6.78;;
50671;SDS011;46021;55.882;37.654;2023-02-01T02:13:09;11.82;;;5.35;;
50671;SDS011;46021;55.882;37.654;2023-02-01T02:15:37;11.90;;;5.25;;
50671;SDS011;46021;55.882;37.654;2023-02-01T02:18:10;14.68;;;6.25;;
50671;SDS011;46021;55.882;37.654;2023-02-01T02:20:50;13.57;;;5.88;;
50671;SDS011;46021;55.882;37.654;2023-02-01T02:23:46;16.30;;;5.72;;
50671;SDS011;46021;55.882;37.654;2023-02-01T02:26:41;14.02;;;5.97;;
50671;SDS011;46021;55.882;37.654;2023-02-01T02:35:14;16.55;;;5.32;;
50671;SDS011;46021;55.882;37.654;2023-02-01T02:37:53;14.85;;;5.50;;
50671;SDS011;46021;55.882;37.654;2023-02-01T02:40:28;12.77;;;4.93;;
50671;SDS011;46021;55.882;37.654;2023-02-01T02:43:02;20.52;;;6.45;;
50671;SDS011;46021;55.882;37.654;2023-02-01T02:45:54;14.52;;;5.97;;
50671;SDS011;46021;55.882;37.654;2023-02-01T02:48:46;19.25;;;6.43;;
50671;SDS011;46021;55.882;37.654;2023-02-01T02:51:20;15.38;;;6.25;;
50671;SDS011;46021;55.882;37.654;2023-02-01T02:54:10;14.00;;;5.63;;
50671;SDS011;46021;55.882;37.654;2023-02-01T02:56:58;15.25;;;5.78;;
50671;SDS011;46021;55.882;37.654;2023-02-01T02:59:46;13.27;;;5.53;;
50671;SDS011;46021;55.882;37.654;2023-02-01T03:02:32;11.35;;;6.13;;
50671;SDS011;46021;55.882;37.654;2023-02-01T03:05:18;12.85;;;5.85;;
50671;SDS011;46021;55.882;37.654;2023-02-01T03:08:00;15.43;;;5.70;;
50671;SDS011;46021;55.882;37.654;2023-02-01T03:10:32;15.30;;;5.80;;
50671;SDS011;46021;55.882;37.654;2023-02-01T03:13:08;13.65;;;5.88;;
50671;SDS011;46021;55.882;37.654;2023-02-01T03:15:40;18.67;;;6.25;;
50671;SDS011;46021;55.882;37.654;2023-02-01T03:18:13;16.85;;;7.07;;
50671;SDS011;46021;55.882;37.654;2023-02-01T03:20:44;13.88;;;7.00;;
50671;SDS011;46021;55.882;37.654;2023-02-01T03:23:20;16.05;;;6.57;;
50671;SDS011;46021;55.882;37.654;2023-02-01T03:25:51;14.80;;;5.78;;
50671;SDS011;46021;55.882;37.654;2023-02-01T03:28:21;14.00;;;5.88;;
50671;SDS011;46021;55.882;37.654;2023-02-01T03:30:51;17.08;;;5.90;;
50671;SDS011;46021;55.882;37.654;2023-02-01T03:33:20;15.45;;;9.57;;
50671;SDS011;46021;55.882;37.654;2023-02-01T03:35:52;16.10;;;10.10;;
50671;SDS011;46021;55.882;37.654;2023-02-01T03:38:27;15.23;;;9.57;;
50671;SDS011;46021;55.882;37.654;2023-02-01T03:41:00;16.33;;;9.48;;
50671;SDS011;46021;55.882;37.654;2023-02-01T03:43:36;13.00;;;5.38;;
50671;SDS011;46021;55.882;37.654;2023-02-01T03:46:11;15.13;;;5.65;;
50671;SDS011;46021;55.882;37.654;2023-02-01T03:48:43;15.10;;;5.93;;
50671;SDS011;46021;55.882;37.654;2023-02-01T03:53:40;11.80;;;5.30;;
50671;SDS011;46021;55.882;37.654;2023-02-01T03:56:11;13.93;;;4.75;;
50671;SDS011;46021;55.882;37.654;2023-02-01T03:58:38;13.43;;;6.07;;
50671;SDS011;46021;55.882;37.654;2023-02-01T04:01:06;15.17;;;5.60;;
50671;SDS011;46021;55.882;37.654;2023-02-01T04:03:36;11.15;;;5.68;;
50671;SDS011;46021;55.882;37.654;2023-02-01T04:06:03;18.08;;;6.35;;
50671;SDS011;46021;55.882;37.654;2023-02-01T04:08:30;10.70;;;5.57;;
50671;SDS011;46021;55.882;37.654;2023-02-01T04:10:59;14.20;;;6.22;;
50671;SDS011;46021;55.882;37.654;2023-02-01T04:13:26;17.50;;;10.38;;
50671;SDS011;46021;55.882;37.654;2023-02-01T04:15:53;21.75;;;11.65;;
50671;SDS011;46021;55.882;37.654;2023-02-01T04:18:20;21.80;;;6.90;;
50671;SDS011;46021;55.882;37.654;2023-02-01T04:20:47;13.50;;;5.28;;
50671;SDS011;46021;55.882;37.654;2023-02-01T04:23:14;15.93;;;5.97;;
50671;SDS011;46021;55.882;37.654;2023-02-01T04:25:42;14.35;;;6.03;;
50671;SDS011;46021;55.882;37.654;2023-02-01T04:28:10;20.67;;;7.33;;
50671;SDS011;46021;55.882;37.654;2023-02-01T04:30:37;19.70;;;7.55;;
50671;SDS011;46021;55.882;37.654;2023-02-01T04:33:04;18.80;;;7.00;;
50671;SDS011;46021;55.882;37.654;2023-02-01T04:35:31;18.50;;;6.47;;
50671;SDS011;46021;55.882;37.654;2023-02-01T04:37:58;13.23;;;6.37;;
50671;SDS011;46021;55.882;37.654;2023-02-01T04:40:25;15.50;;;5.68;;
50671;SDS011;46021;55.882;37.654;2023-02-01T04:42:52;16.15;;;6.53;;
50671;SDS011;46021;55.882;37.654;2023-02-01T04:45:21;15.48;;;7.38;;
50671;SDS011;46021;55.882;37.654;2023-02-01T04:47:48;18.45;;;6.68;;
50671;SDS011;46021;55.882;37.654;2023-02-01T04:50:15;15.10;;;6.17;;
50671;SDS011;46021;55.882;37.654;2023-02-01T04:52:42;14.98;;;6.30;;
50671;SDS011;46021;55.882;37.654;2023-02-01T04:55:10;21.85;;;11.82;;
50671;SDS011;46021;55.882;37.654;2023-02-01T04:57:38;14.30;;;6.57;;
50671;SDS011;46021;55.882;37.654;2023-02-01T05:00:06;14.98;;;7.15;;
50671;SDS011;46021;55.882;37.654;2023-02-01T05:02:36;16.48;;;7.20;;
50671;SDS011;46021;55.882;37.654;2023-02-01T05:05:04;16.20;;;6.90;;
50671;SDS011;46021;55.882;37.654;2023-02-01T05:07:32;20.77;;;11.88;;
50671;SDS011;46021;55.882;37.654;2023-02-01T05:09:59;14.10;;;6.30;;
50671;SDS011;46021;55.882;37.654;2023-02-01T05:12:26;12.93;;;5.90;;
50671;SDS011;46021;55.882;37.654;2023-02-01T05:15:10;15.20;;;6.25;;
50671;SDS011;46021;55.882;37.654;2023-02-01T05:17:39;22.73;;;5.80;;
50671;SDS011;46021;55.882;37.654;2023-02-01T05:20:06;26.63;;;6.00;;
50671;SDS011;46021;55.882;37.654;2023-02-01T05:22:35;15.15;;;7.45;;
50671;SDS011;46021;55.882;37.654;2023-02-01T05:25:02;18.73;;;6.63;;
50671;SDS011;46021;55.882;37.654;2023-02-01T05:27:29;10.88;;;5.63;;
50671;SDS011;46021;55.882;37.654;2023-02-01T05:29:56;16.63;;;6.75;;
50671;SDS011;46021;55.882;37.654;2023-02-01T05:32:23;14.32;;;6.30;;
50671;SDS011;46021;55.882;37.654;2023-02-01T05:34:52;18.70;;;7.15;;
50671;SDS011;46021;55.882;37.654;2023-02-01T05:37:19;15.77;;;6.38;;
50671;SDS011;46021;55.882;37.654;2023-02-01T05:39:45;21.92;;;11.40;;
50671;SDS011;46021;55.882;37.654;2023-02-01T05:42:13;18.15;;;7.13;;
50671;SDS011;46021;55.882;37.654;2023-02-01T05:44:40;15.60;;;6.05;;
50671;SDS011;46021;55.882;37.654;2023-02-01T05:47:07;16.92;;;6.35;;
50671;SDS011;46021;55.882;37.654;2023-02-01T05:49:34;17.40;;;6.60;;
50671;SDS011;46021;55.882;37.654;2023-02-01T05:52:03;16.23;;;7.50;;
50671;SDS011;46021;55.882;37.654;2023-02-01T05:54:30;19.63;;;7.45;;
50671;SDS011;46021;55.882;37.654;2023-02-01T05:56:57;23.33;;;6.87;;
50671;SDS011;46021;55.882;37.654;2023-02-01T05:59:24;15.68;;;6.55;;
50671;SDS011;46021;55.882;37.654;2023-02-01T06:01:51;15.73;;;6.00;;
50671;SDS011;46021;55.882;37.654;2023-02-01T06:04:19;21.58;;;6.82;;
50671;SDS011;46021;55.882;37.654;2023-02-01T06:06:46;16.45;;;6.68;;
50671;SDS011;46021;55.882;37.654;2023-02-01T06:09:18;16.58;;;6.88;;
50671;SDS011;46021;55.882;37.654;2023-02-01T06:11:45;17.23;;;6.50;;
50671;SDS011;46021;55.882;37.654;2023-02-01T06:14:12;21.65;;;8.30;;
50671;SDS011;46021;55.882;37.654;2023-02-01T06:16:39;23.02;;;8.25;;
50671;SDS011;46021;55.882;37.654;2023-02-01T06:19:07;22.27;;;7.35;;
50671;SDS011;46021;55.882;37.654;2023-02-01T06:21:34;49.73;;;17.60;;
50671;SDS011;46021;55.882;37.654;2023-02-01T06:24:02;21.80;;;7.78;;
50671;SDS011;46021;55.882;37.654;2023-02-01T06:26:31;16.95;;;8.27;;
50671;SDS011;46021;55.882;37.654;2023-02-01T06:28:58;19.88;;;7.78;;
50671;SDS011;46021;55.882;37.654;2023-02-01T06:31:25;19.52;;;7.88;;
50671;SDS011;46021;55.882;37.654;2023-02-01T06:33:52;19.07;;;7.50;;
50671;SDS011;46021;55.882;37.654;2023-02-01T06:36:19;16.07;;;7.03;;
50671;SDS011;46021;55.882;37.654;2023-02-01T06:38:47;18.77;;;7.93;;
50671;SDS011;46021;55.882;37.654;2023-02-01T06:41:15;21.20;;;7.57;;
50671;SDS011;46021;55.882;37.654;2023-02-01T06:43:43;17.65;;;6.53;;
50671;SDS011;46021;55.882;37.654;2023-02-01T06:46:12;21.15;;;7.95;;
50671;SDS011;46021;55.882;37.654;2023-02-01T06:48:39;21.42;;;8.18;;
50671;SDS011;46021;55.882;37.654;2023-02-01T06:51:15;19.92;;;7.63;;
50671;SDS011;46021;55.882;37.654;2023-02-01T06:53:46;21.85;;;7.57;;
50671;SDS011;46021;55.882;37.654;2023-02-01T06:56:13;18.50;;;7.47;;
50671;SDS011;46021;55.882;37.654;2023-02-01T06:58:40;18.60;;;8.25;;
50671;SDS011;46021;55.882;37.654;2023-02-01T07:01:08;16.27;;;7.47;;
50671;SDS011;46021;55.882;37.654;2023-02-01T07:03:36;23.05;;;8.85;;
50671;SDS011;46021;55.882;37.654;2023-02-01T07:06:04;15.88;;;6.78;;
50671;SDS011;46021;55.882;37.654;2023-02-01T07:08:33;20.52;;;8.43;;
50671;SDS011;46021;55.882;37.654;2023-02-01T07:11:01;32.50;;;7.35;;
50671;SDS011;46021;55.882;37.654;2023-02-01T07:15:57;36.38;;;13.15;;
50671;SDS011;46021;55.882;37.654;2023-02-01T07:18:27;16.33;;;7.43;;
50671;SDS011;46021;55.882;37.654;2023-02-01T07:20:55;23.85;;;7.68;;
50671;SDS011;46021;55.882;37.654;2023-02-01T07:23:22;25.45;;;8.48;;
50671;SDS011;46021;55.882;37.654;2023-02-01T07:25:52;26.17;;;10.27;;
50671;SDS011;46021;55.882;37.654;2023-02-01T07:28:20;31.23;;;17.05;;
50671;SDS011;46021;55.882;37.654;2023-02-01T07:30:47;21.75;;;9.25;;
50671;SDS011;46021;55.882;37.654;2023-02-01T07:33:17;32.67;;;10.23;;
50671;SDS011;46021;55.882;37.654;2023-02-01T07:35:47;25.75;;;9.15;;
50671;SDS011;46021;55.882;37.654;2023-02-01T07:38:14;26.27;;;10.15;;
50671;SDS011;46021;55.882;37.654;2023-02-01T07:40:41;24.38;;;9.88;;
50671;SDS011;46021;55.882;37.654;2023-02-01T07:43:09;27.67;;;9.38;;
50671;SDS011;46021;55.882;37.654;2023-02-01T07:45:36;34.83;;;9.95;;
50671;SDS011;46021;55.882;37.654;2023-02-01T07:48:03;23.20;;;10.10;;
50671;SDS011;46021;55.882;37.654;2023-02-01T07:50:31;24.20;;;9.57;;
50671;SDS011;46021;55.882;37.654;2023-02-01T07:53:00;28.58;;;9.77;;
50671;SDS011;46021;55.882;37.654;2023-02-01T07:55:27;30.38;;;10.75;;
50671;SDS011;46021;55.882;37.654;2023-02-01T07:57:56;35.08;;;10.05;;
50671;SDS011;46021;55.882;37.654;2023-02-01T08:00:24;25.08;;;10.88;;
50671;SDS011;46021;55.882;37.654;2023-02-01T08:03:09;21.92;;;9.63;;
50671;SDS011;46021;55.882;37.654;2023-02-01T08:05:36;27.65;;;9.73;;
50671;SDS011;46021;55.882;37.654;2023-02-01T08:08:05;28.42;;;8.82;;
50671;SDS011;46021;55.882;37.654;2023-02-01T08:10:32;25.88;;;8.38;;
50671;SDS011;46021;55.882;37.654;2023-02-01T08:15:28;25.58;;;9.15;;
50671;SDS011;46021;55.882;37.654;2023-02-01T08:17:56;22.17;;;8.93;;
50671;SDS011;46021;55.882;37.654;2023-02-01T08:20:23;20.25;;;8.18;;
50671;SDS011;46021;55.882;37.654;2023-02-01T08:22:52;25.52;;;9.45;;
50671;SDS011;46021;55.882;37.654;2023-02-01T08:25:20;24.13;;;8.60;;
50671;SDS011;46021;55.882;37.654;2023-02-01T08:27:48;21.85;;;9.25;;
50671;SDS011;46021;55.882;37.654;2023-02-01T08:30:16;24.05;;;9.20;;
50671;SDS011;46021;55.882;37.654;2023-02-01T08:32:44;30.73;;;10.77;;
50671;SDS011;46021;55.882;37.654;2023-02-01T08:35:11;26.37;;;10.40;;
50671;SDS011;46021;55.882;37.654;2023-02-01T08:37:38;27.43;;;11.30;;
50671;SDS011;46021;55.882;37.654;2023-02-01T08:40:06;29.77;;;10.40;;
50671;SDS011;46021;55.882;37.654;2023-02-01T08:42:35;35.20;;;12.07;;
50671;SDS011;46021;55.882;37.654;2023-02-01T08:45:17;25.17;;;9.85;;
50671;SDS011;46021;55.882;37.654;2023-02-01T08:47:45;26.55;;;9.75;;
50671;SDS011;46021;55.882;37.654;2023-02-01T08:50:13;29.65;;;11.95;;
50671;SDS011;46021;55.882;37.654;2023-02-01T08:52:40;26.48;;;9.55;;
50671;SDS011;46021;55.882;37.654;2023-02-01T08:55:08;24.23;;;9.13;;
50671;SDS011;46021;55.882;37.654;2023-02-01T08:57:38;27.95;;;10.30;;
50671;SDS011;46021;55.882;37.654;2023-02-01T09:00:06;26.45;;;10.38;;
50671;SDS011;46021;55.882;37.654;2023-02-01T09:02:35;27.85;;;10.27;;
50671;SDS011;46021;55.882;37.654;2023-02-01T09:05:02;30.85;;;10.25;;
50671;SDS011;46021;55.882;37.654;2023-02-01T09:07:30;23.23;;;10.52;;
50671;SDS011;46021;55.882;37.654;2023-02-01T09:09:58;35.83;;;17.20;;
50671;SDS011;46021;55.882;37.654;2023-02-01T09:12:26;32.88;;;17.25;;
50671;SDS011;46021;55.882;37.654;2023-02-01T09:14:55;21.67;;;9.18;;
50671;SDS011;46021;55.882;37.654;2023-02-01T09:17:25;26.77;;;9.40;;
50671;SDS011;46021;55.882;37.654;2023-02-01T09:19:52;27.77;;;9.35;;
50671;SDS011;46021;55.882;37.654;2023-02-01T09:22:19;20.55;;;8.50;;
50671;SDS011;46021;55.882;37.654;2023-02-01T09:24:47;19.55;;;9.50;;
50671;SDS011;46021;55.882;37.654;2023-02-01T09:27:14;28.83;;;9.60;;
50671;SDS011;46021;55.882;37.654;2023-02-01T09:29:41;28.88;;;10.48;;
50671;SDS011;46021;55.882;37.654;2023-02-01T09:32:10;26.60;;;10.83;;
50671;SDS011;46021;55.882;37.654;2023-02-01T09:34:37;41.22;;;20.40;;
50671;SDS011;46021;55.882;37.654;2023-02-01T09:37:04;34.22;;;11.82;;
50671;SDS011;46021;55.882;37.654;2023-02-01T09:39:31;28.48;;;11.32;;
50671;SDS011;46021;55.882;37.654;2023-02-01T09:41:59;39.45;;;21.30;;
50671;SDS011;46021;55.882;37.654;2023-02-01T09:44:39;41.17;;;21.48;;
50671;SDS011;46021;55.882;37.654;2023-02-01T09:47:17;37.33;;;20.50;;
50671;SDS011;46021;55.882;37.654;2023-02-01T09:49:49;40.40;;;22.02;;
50671;SDS011;46021;55.882;37.654;2023-02-01T09:52:23;37.72;;;19.55;;
50671;SDS011;46021;55.882;37.654;2023-02-01T09:54:55;37.17;;;20.33;;
50671;SDS011;46021;55.882;37.654;2023-02-01T09:57:32;35.97;;;18.45;;
50671;SDS011;46021;55.882;37.654;2023-02-01T10:00:12;34.03;;;18.90;;
50671;SDS011;46021;55.882;37.654;2023-02-01T10:02:45;33.60;;;18.10;;
50671;SDS011;46021;55.882;37.654;2023-02-01T10:05:13;34.30;;;17.30;;
50671;SDS011;46021;55.882;37.654;2023-02-01T10:07:43;29.20;;;17.52;;
50671;SDS011;46021;55.882;37.654;2023-02-01T10:10:20;25.00;;;9.77;;
50671;SDS011;46021;55.882;37.654;2023-02-01T10:13:01;32.45;;;17.65;;
50671;SDS011;46021;55.882;37.654;2023-02-01T10:15:40;22.27;;;9.30;;
50671;SDS011;46021;55.882;37.654;2023-02-01T10:18:18;33.33;;;16.67;;
50671;SDS011;46021;55.882;37.654;2023-02-01T10:20:57;31.25;;;16.85;;
50671;SDS011;46021;55.882;37.654;2023-02-01T10:23:39;30.15;;;16.58;;
50671;SDS011;46021;55.882;37.654;2023-02-01T10:26:18;27.52;;;16.45;;
50671;SDS011;46021;55.882;37.654;2023-02-01T10:28:48;29.15;;;16.45;;
50671;SDS011;46021;55.882;37.654;2023-02-01T10:31:16;26.45;;;9.63;;
50671;SDS011;46021;55.882;37.654;2023-02-01T10:33:46;23.08;;;9.20;;
50671;SDS011;46021;55.882;37.654;2023-02-01T10:36:17;30.35;;;16.52;;
50671;SDS011;46021;55.882;37.654;2023-02-01T10:38:48;27.02;;;16.35;;
50671;SDS011;46021;55.882;37.654;2023-02-01T10:41:16;22.65;;;9.80;;
50671;SDS011;46021;55.882;37.654;2023-02-01T10:43:48;21.92;;;9.93;;
50671;SDS011;46021;55.882;37.654;2023-02-01T10:46:18;22.10;;;9.43;;
50671;SDS011;46021;55.882;37.654;2023-02-01T10:48:47;25.25;;;8.82;;
50671;SDS011;46021;55.882;37.654;2023-02-01T10:51:16;47.20;;;23.70;;
50671;SDS011;46021;55.882;37.654;2023-02-01T10:53:48;28.67;;;17.38;;
50671;SDS011;46021;55.882;37.654;2023-02-01T10:56:21;31.90;;;17.73;;
50671;SDS011;46021;55.882;37.654;2023-02-01T10:58:50;32.08;;;18.08;;
50671;SDS011;46021;55.882;37.654;2023-02-01T11:01:19;23.08;;;8.70;;
50671;SDS011;46021;55.882;37.654;2023-02-01T11:03:55;22.38;;;9.07;;
50671;SDS011;46021;55.882;37.654;2023-02-01T11:06:27;24.48;;;9.35;;
50671;SDS011;46021;55.882;37.654;2023-02-01T11:08:57;28.35;;;10.75;;
50671;SDS011;46021;55.882;37.654;2023-02-01T11:11:26;31.50;;;11.30;;
50671;SDS011;46021;55.882;37.654;2023-02-01T11:16:23;25.63;;;11.07;;
50671;SDS011;46021;55.882;37.654;2023-02-01T11:18:59;36.50;;;22.13;;
50671;SDS011;46021;55.882;37.654;2023-02-01T11:21:26;30.48;;;11.18;;
50671;SDS011;46021;55.882;37.654;2023-02-01T11:23:56;39.25;;;22.58;;
50671;SDS011;46021;55.882;37.654;2023-02-01T11:26:28;36.45;;;12.95;;
50671;SDS011;46021;55.882;37.654;2023-02-01T11:28:58;31.45;;;12.13;;
50671;SDS011;46021;55.882;37.654;2023-02-01T11:31:27;36.25;;;11.50;;
50671;SDS011;46021;55.882;37.654;2023-02-01T11:33:59;30.60;;;12.55;;
50671;SDS011;46021;55.882;37.654;2023-02-01T11:36:31;29.92;;;11.60;;
50671;SDS011;46021;55.882;37.654;2023-02-01T11:39:14;28.85;;;12.73;;
50671;SDS011;46021;55.882;37.654;2023-02-01T11:41:58;35.47;;;12.82;;
50671;SDS011;46021;55.882;37.654;2023-02-01T11:44:32;26.35;;;11.45;;
50671;SDS011;46021;55.882;37.654;2023-02-01T11:47:16;27.73;;;11.68;;
50671;SDS011;46021;55.882;37.654;2023-02-01T11:49:47;28.67;;;12.18;;
50671;SDS011;46021;55.882;37.654;2023-02-01T11:52:18;31.20;;;13.40;;
50671;SDS011;46021;55.882;37.654;2023-02-01T11:55:12;33.63;;;12.95;;
50671;SDS011;46021;55.882;37.654;2023-02-01T11:57:51;33.28;;;14.07;;
50671;SDS011;46021;55.882;37.654;2023-02-01T12:00:40;36.25;;;13.07;;
50671;SDS011;46021;55.882;37.654;2023-02-01T12:03:41;33.17;;;12.93;;
50671;SDS011;46021;55.882;37.654;2023-02-01T12:06:24;28.48;;;12.02;;
50671;SDS011;46021;55.882;37.654;2023-02-01T12:09:07;33.22;;;12.75;;
50671;SDS011;46021;55.882;37.654;2023-02-01T12:11:48;31.70;;;11.80;;
50671;SDS011;46021;55.882;37.654;2023-02-01T12:14:26;32.60;;;11.30;;
50671;SDS011;46021;55.882;37.654;2023-02-01T12:17:12;27.80;;;11.07;;
50671;SDS011;46021;55.882;37.654;2023-02-01T12:19:59;28.50;;;11.48;;
50671;SDS011;46021;55.882;37.654;2023-02-01T12:22:40;25.38;;;10.25;;
50671;SDS011;46021;55.882;37.654;2023-02-01T12:28:12;23.60;;;9.95;;
50671;SDS011;46021;55.882;37.654;2023-02-01T12:34:01;24.70;;;9.98;;
50671;SDS011;46021;55.882;37.654;2023-02-01T12:36:44;27.13;;;10.30;;
50671;SDS011;46021;55.882;37.654;2023-02-01T12:39:20;25.25;;;10.15;;
50671;SDS011;46021;55.882;37.654;2023-02-01T12:41:52;30.10;;;10.70;;
50671;SDS011;46021;55.882;37.654;2023-02-01T12:44:29;23.52;;;9.90;;
50671;SDS011;46021;55.882;37.654;2023-02-01T12:47:03;20.25;;;8.85;;
50671;SDS011;46021;55.882;37.654;2023-02-01T12:49:40;22.85;;;9.70;;
50671;SDS011;46021;55.882;37.654;2023-02-01T12:52:13;29.10;;;11.73;;
50671;SDS011;46021;55.882;37.654;2023-02-01T12:54:47;25.75;;;11.60;;
50671;SDS011;46021;55.882;37.654;2023-02-01T12:57:23;31.58;;;11.57;;
50671;SDS011;46021;55.882;37.654;2023-02-01T12:59:54;24.23;;;10.75;;
50671;SDS011;46021;55.882;37.654;2023-02-01T13:02:30;27.52;;;10.68;;
50671;SDS011;46021;55.882;37.654;2023-02-01T13:05:11;24.52;;;10.65;;
50671;SDS011;46021;55.882;37.654;2023-02-01T13:07:43;23.55;;;10.05;;
50671;SDS011;46021;55.882;37.654;2023-02-01T13:10:17;23.70;;;9.05;;
50671;SDS011;46021;55.882;37.654;2023-02-01T13:12:49;31.30;;;9.10;;
50671;SDS011;46021;55.882;37.654;2023-02-01T13:15:21;29.35;;;9.85;;
50671;SDS011;46021;55.882;37.654;2023-02-01T13:17:52;27.27;;;10.05;;
50671;SDS011;46021;55.882;37.654;2023-02-01T13:20:26;24.25;;;9.30;;
50671;SDS011;46021;55.882;37.654;2023-02-01T13:22:59;30.25;;;11.65;;
50671;SDS011;46021;55.882;37.654;2023-02-01T13:25:31;23.23;;;9.73;;
50671;SDS011;46021;55.882;37.654;2023-02-01T13:28:04;27.10;;;10.20;;
50671;SDS011;46021;55.882;37.654;2023-02-01T13:30:39;21.58;;;9.43;;
50671;SDS011;46021;55.882;37.654;2023-02-01T13:33:30;17.95;;;8.13;;
50671;SDS011;46021;55.882;37.654;2023-02-01T13:36:20;23.83;;;8.80;;
50671;SDS011;46021;55.882;37.654;2023-02-01T13:39:08;16.65;;;7.05;;
50671;SDS011;46021;55.882;37.654;2023-02-01T13:41:54;21.85;;;6.93;;
50671;SDS011;46021;55.882;37.654;2023-02-01T13:44:26;19.20;;;7.60;;
50671;SDS011;46021;55.882;37.654;2023-02-01T13:46:59;17.92;;;7.80;;
50671;SDS011;46021;55.882;37.654;2023-02-01T13:49:28;26.95;;;13.88;;
50671;SDS011;46021;55.882;37.654;2023-02-01T13:51:59;22.23;;;13.40;;
50671;SDS011;46021;55.882;37.654;2023-02-01T13:54:28;23.30;;;7.97;;
50671;SDS011;46021;55.882;37.654;2023-02-01T13:56:59;16.38;;;6.70;;
50671;SDS011;46021;55.882;37.654;2023-02-01T14:08:44;17.75;;;6.78;;
50671;SDS011;46021;55.882;37.654;2023-02-01T14:11:34;14.30;;;6.22;;
50671;SDS011;46021;55.882;37.654;2023-02-01T14:23:25;15.55;;;6.22;;
50671;SDS011;46021;55.882;37.654;2023-02-01T14:26:03;13.20;;;6.50;;
50671;SDS011;46021;55.882;37.654;2023-02-01T14:28:46;16.05;;;6.20;;
50671;SDS011;46021;55.882;37.654;2023-02-01T14:31:30;21.33;;;8.63;;
50671;SDS011;46021;55.882;37.654;2023-02-01T14:34:12;22.52;;;8.73;;
50671;SDS011;46021;55.882;37.654;2023-02-01T14:36:47;16.50;;;6.70;;
50671;SDS011;46021;55.882;37.654;2023-02-01T14:39:23;18.77;;;7.22;;
50671;SDS011;46021;55.882;37.654;2023-02-01T14:41:54;16.13;;;6.82;;
50671;SDS011;46021;55.882;37.654;2023-02-01T14:44:25;26.13;;;8.38;;
50671;SDS011;46021;55.882;37.654;2023-02-01T14:47:07;18.38;;;7.10;;
50671;SDS011;46021;55.882;37.654;2023-02-01T14:49:39;21.77;;;7.65;;
50671;SDS011;46021;55.882;37.654;2023-02-01T14:52:16;22.48;;;8.13;;
50671;SDS011;46021;55.882;37.654;2023-02-01T14:54:48;17.17;;;6.57;;
50671;SDS011;46021;55.882;37.654;2023-02-01T14:57:20;17.35;;;6.90;;
50671;SDS011;46021;55.882;37.654;2023-02-01T14:59:53;17.95;;;7.97;;
50671;SDS011;46021;55.882;37.654;2023-02-01T15:02:26;15.60;;;7.00;;
50671;SDS011;46021;55.882;37.654;2023-02-01T15:04:57;18.45;;;7.40;;
50671;SDS011;46021;55.882;37.654;2023-02-01T15:07:24;13.73;;;7.15;;
50671;SDS011;46021;55.882;37.654;2023-02-01T15:09:53;17.30;;;7.47;;
50671;SDS011;46021;55.882;37.654;2023-02-01T15:12:25;20.30;;;7.00;;
50671;SDS011;46021;55.882;37.654;2023-02-01T15:15:12;18.85;;;7.63;;
50671;SDS011;46021;55.882;37.654;2023-02-01T15:17:50;19.83;;;8.52;;
50671;SDS011;46021;55.882;37.654;2023-02-01T15:20:20;14.10;;;6.80;;
50671;SDS011;46021;55.882;37.654;2023-02-01T15:22:53;23.13;;;7.57;;
50671;SDS011;46021;55.882;37.654;2023-02-01T15:25:23;17.73;;;6.65;;